createdAt,value
2019-02-15T00:00:14.327Z,23.40
2019-02-15T00:02:43.211Z,23.50
2019-02-15T00:05:11.785Z,23.40
2019-02-15T00:07:40.229Z,23.40
2019-02-15T00:10:08.768Z,23.40
2019-02-15T00:12:37.449Z,23.40
2019-02-15T00:15:06.836Z,23.40
2019-02-15T00:17:43.115Z,23.40
2019-02-15T00:20:16.469Z,23.40
2019-02-15T00:22:45.402Z,23.40
2019-02-15T00:25:14.088Z,23.40
2019-02-15T00:27:42.776Z,23.40
2019-02-15T00:30:12.470Z,23.30
2019-02-15T00:32:40.971Z,23.30
2019-02-15T00:35:09.761Z,23.30
2019-02-15T00:37:38.439Z,23.20
2019-02-15T00:40:06.934Z,23.20
2019-02-15T00:42:35.688Z,23.20
2019-02-15T00:45:06.032Z,23.10
2019-02-15T00:47:38.791Z,23.10
2019-02-15T00:50:09.746Z,23.10
2019-02-15T00:52:42.927Z,23.10
2019-02-15T00:55:15.807Z,23.10
2019-02-15T00:57:49.405Z,23.00
2019-02-15T01:00:32.476Z,23.00
2019-02-15T01:03:17.496Z,23.00
2019-02-15T01:05:54.501Z,23.00
2019-02-15T01:08:27.363Z,23.00
2019-02-15T01:11:13.199Z,23.00
2019-02-15T01:13:41.936Z,23.00
2019-02-15T01:16:10.411Z,22.90
2019-02-15T01:18:39.128Z,22.90
2019-02-15T01:21:07.815Z,22.90
2019-02-15T01:23:36.565Z,22.90
2019-02-15T01:26:06.739Z,22.90
2019-02-15T01:28:37.023Z,22.90
2019-02-15T01:31:22.199Z,22.80
2019-02-15T01:33:52.418Z,22.80
2019-02-15T01:36:25.733Z,22.80
2019-02-15T01:38:55.932Z,22.80
2019-02-15T01:41:33.027Z,22.80
2019-02-15T01:44:03.231Z,22.80
2019-02-15T01:46:33.686Z,22.80
2019-02-15T01:49:02.244Z,22.80
2019-02-15T01:51:31.246Z,22.80
2019-02-15T01:54:01.511Z,22.80
2019-02-15T01:56:30.054Z,22.80
2019-02-15T01:58:58.528Z,22.80
2019-02-15T02:01:27.960Z,22.80
2019-02-15T02:03:56.638Z,22.80
2019-02-15T02:06:25.197Z,22.80
2019-02-15T02:08:53.735Z,22.80
2019-02-15T02:11:23.899Z,22.80
2019-02-15T02:13:52.611Z,22.70
2019-02-15T02:16:21.052Z,22.70
2019-02-15T02:18:49.984Z,22.70
2019-02-15T02:21:18.911Z,22.70
2019-02-15T02:23:47.438Z,22.70
2019-02-15T02:26:16.244Z,22.70
2019-02-15T02:28:45.034Z,22.70
2019-02-15T02:31:13.463Z,22.70
2019-02-15T02:33:42.657Z,22.70
2019-02-15T02:36:11.409Z,22.70
2019-02-15T02:38:39.846Z,22.70
2019-02-15T02:41:08.439Z,22.70
2019-02-15T02:43:37.032Z,22.70
2019-02-15T02:46:05.505Z,22.70
2019-02-15T02:48:35.403Z,22.70
2019-02-15T02:51:04.002Z,22.70
2019-02-15T02:53:34.550Z,22.70
2019-02-15T02:56:02.834Z,22.70
2019-02-15T02:58:34.792Z,22.70
2019-02-15T03:01:03.786Z,22.70
2019-02-15T03:03:32.347Z,22.70
2019-02-15T03:06:00.928Z,22.70
2019-02-15T03:08:29.537Z,22.70
2019-02-15T03:10:57.990Z,22.70
2019-02-15T03:13:29.957Z,22.70
2019-02-15T03:15:58.542Z,22.70
2019-02-15T03:18:27.359Z,22.70
2019-02-15T03:20:55.913Z,22.70
2019-02-15T03:23:24.500Z,22.70
2019-02-15T03:25:53.410Z,22.70
2019-02-15T03:28:22.168Z,22.70
2019-02-15T03:30:50.783Z,22.70
2019-02-15T03:33:19.213Z,22.70
2019-02-15T03:35:55.540Z,22.70
2019-02-15T03:38:31.766Z,22.70
2019-02-15T03:41:02.929Z,22.70
2019-02-15T03:43:31.729Z,22.70
2019-02-15T03:46:00.973Z,22.70
2019-02-15T03:48:29.452Z,22.70
2019-02-15T03:51:01.137Z,22.70
2019-02-15T03:53:29.606Z,22.70
2019-02-15T03:55:58.223Z,22.70
2019-02-15T03:58:27.103Z,22.70
2019-02-15T04:00:55.681Z,22.70
2019-02-15T04:03:26.086Z,22.70
2019-02-15T04:05:54.589Z,22.70
2019-02-15T04:08:23.198Z,22.70
2019-02-15T04:10:53.609Z,22.70
2019-02-15T04:13:22.020Z,22.70
2019-02-15T04:15:50.563Z,22.70
2019-02-15T04:18:19.130Z,22.70
2019-02-15T04:20:47.847Z,22.70
2019-02-15T04:23:16.538Z,22.60
2019-02-15T04:25:45.245Z,22.60
2019-02-15T04:28:14.628Z,22.70
2019-02-15T04:30:43.179Z,22.60
2019-02-15T04:33:11.686Z,22.70
2019-02-15T04:35:40.882Z,22.60
2019-02-15T04:38:09.336Z,22.60
2019-02-15T04:40:37.819Z,22.60
2019-02-15T04:43:06.567Z,22.60
2019-02-15T04:45:35.319Z,22.60
2019-02-15T04:48:04.006Z,22.60
2019-02-15T04:50:32.877Z,22.60
2019-02-15T04:53:03.040Z,22.60
2019-02-15T04:55:31.573Z,22.60
2019-02-15T04:58:00.256Z,22.60
2019-02-15T05:00:28.945Z,22.60
2019-02-15T05:02:57.424Z,22.60
2019-02-15T05:05:26.038Z,22.60
2019-02-15T05:07:54.695Z,22.60
2019-02-15T05:10:23.410Z,22.60
2019-02-15T05:12:51.895Z,22.60
2019-02-15T05:15:20.436Z,22.60
2019-02-15T05:17:49.031Z,22.60
2019-02-15T05:20:17.536Z,22.60
2019-02-15T05:22:46.109Z,22.60
2019-02-15T05:25:14.565Z,22.60
2019-02-15T05:27:43.172Z,22.60
2019-02-15T05:30:13.516Z,22.60
2019-02-15T05:32:42.278Z,22.60
2019-02-15T05:35:11.192Z,22.60
2019-02-15T05:37:40.183Z,22.60
2019-02-15T05:40:08.881Z,22.60
2019-02-15T05:42:37.554Z,22.60
2019-02-15T05:45:08.186Z,22.60
2019-02-15T05:47:36.635Z,22.60
2019-02-15T05:50:06.209Z,22.60
2019-02-15T05:52:34.734Z,22.60
2019-02-15T05:55:03.733Z,22.60
2019-02-15T05:57:32.435Z,22.60
2019-02-15T06:00:00.987Z,22.60
2019-02-15T06:02:29.504Z,22.60
2019-02-15T06:04:58.195Z,22.60
2019-02-15T06:07:27.156Z,22.60
2019-02-15T06:09:55.869Z,22.60
2019-02-15T06:12:24.425Z,22.60
2019-02-15T06:14:52.918Z,22.60
2019-02-15T06:17:21.589Z,22.60
2019-02-15T06:19:50.611Z,22.60
2019-02-15T06:22:19.058Z,22.60
2019-02-15T06:24:47.652Z,22.60
2019-02-15T06:27:16.359Z,22.60
2019-02-15T06:29:45.019Z,22.60
2019-02-15T06:32:14.314Z,22.60
2019-02-15T06:34:43.027Z,22.60
2019-02-15T06:37:14.859Z,22.60
2019-02-15T06:39:43.485Z,22.60
2019-02-15T06:42:12.032Z,22.60
2019-02-15T06:44:40.845Z,22.60
2019-02-15T06:47:09.624Z,22.60
2019-02-15T06:49:38.289Z,22.60
2019-02-15T06:52:06.908Z,22.60
2019-02-15T06:54:35.356Z,22.60
2019-02-15T06:57:03.942Z,22.60
2019-02-15T06:59:50.543Z,22.60
2019-02-15T07:02:23.548Z,22.60
2019-02-15T07:04:59.698Z,22.60
2019-02-15T07:07:28.817Z,22.60
2019-02-15T07:09:57.543Z,22.60
2019-02-15T07:12:27.987Z,22.60
2019-02-15T07:14:56.717Z,22.60
2019-02-15T07:17:25.148Z,22.60
2019-02-15T07:19:55.359Z,22.60
2019-02-15T07:22:24.003Z,22.60
2019-02-15T07:24:52.557Z,22.60
2019-02-15T07:27:21.357Z,22.60
2019-02-15T07:29:49.935Z,22.60
2019-02-15T07:32:18.749Z,22.60
2019-02-15T07:34:47.610Z,22.60
2019-02-15T07:37:16.423Z,22.60
2019-02-15T07:39:45.585Z,22.60
2019-02-15T07:42:14.280Z,22.60
2019-02-15T07:44:42.730Z,22.60
2019-02-15T07:47:13.083Z,22.60
2019-02-15T07:49:41.527Z,22.60
2019-02-15T07:52:10.161Z,22.60
2019-02-15T07:54:40.434Z,22.60
2019-02-15T07:57:08.955Z,22.60
2019-02-15T07:59:37.542Z,22.60
2019-02-15T08:02:06.273Z,22.60
2019-02-15T08:04:35.039Z,22.60
2019-02-15T08:07:03.725Z,22.60
2019-02-15T08:09:32.417Z,22.60
2019-02-15T08:12:00.971Z,22.60
2019-02-15T08:14:29.558Z,22.60
2019-02-15T08:16:58.168Z,22.60
2019-02-15T08:19:26.662Z,22.60
2019-02-15T08:21:55.199Z,22.60
2019-02-15T08:24:24.796Z,22.60
2019-02-15T08:26:53.519Z,22.60
2019-02-15T08:29:22.181Z,22.60
2019-02-15T08:31:50.759Z,22.60
2019-02-15T08:34:19.578Z,22.60
2019-02-15T08:36:48.137Z,22.60
2019-02-15T08:39:16.721Z,22.60
2019-02-15T08:42:00.669Z,22.60
2019-02-15T08:44:15.418Z,22.60
2019-02-15T08:46:44.234Z,22.60
2019-02-15T08:49:12.904Z,22.60
2019-02-15T08:51:41.482Z,22.60
2019-02-15T08:54:09.961Z,22.60
2019-02-15T08:56:40.654Z,22.60
2019-02-15T08:59:08.972Z,22.60
2019-02-15T09:01:37.886Z,22.60
2019-02-15T09:04:06.318Z,22.60
2019-02-15T09:06:36.667Z,22.60
2019-02-15T09:09:06.077Z,22.60
2019-02-15T09:11:36.197Z,22.60
2019-02-15T09:14:07.847Z,22.60
2019-02-15T09:16:36.431Z,22.60
2019-02-15T09:19:06.135Z,22.60
2019-02-15T09:21:36.081Z,22.60
2019-02-15T09:24:04.663Z,22.60
2019-02-15T09:26:33.430Z,22.60
2019-02-15T09:29:06.841Z,22.60
2019-02-15T09:31:35.395Z,22.60
2019-02-15T09:34:04.008Z,22.60
2019-02-15T09:36:32.452Z,22.60
2019-02-15T09:39:01.048Z,22.60
2019-02-15T09:41:29.764Z,22.60
2019-02-15T09:43:58.320Z,22.60
2019-02-15T09:46:27.162Z,22.60
2019-02-15T09:48:55.639Z,22.60
2019-02-15T09:51:25.858Z,22.60
2019-02-15T09:53:54.726Z,22.60
2019-02-15T09:56:24.194Z,22.60
2019-02-15T09:58:52.693Z,22.60
2019-02-15T10:01:21.399Z,22.60
2019-02-15T10:03:49.837Z,22.60
2019-02-15T10:06:18.360Z,22.60
2019-02-15T10:08:46.924Z,22.60
2019-02-15T10:11:15.466Z,22.60
2019-02-15T10:13:43.973Z,22.60
2019-02-15T10:16:12.593Z,22.60
2019-02-15T10:18:41.147Z,22.60
2019-02-15T10:21:09.968Z,22.60
2019-02-15T10:23:38.967Z,22.60
2019-02-15T10:26:07.518Z,22.60
2019-02-15T10:28:36.101Z,22.60
2019-02-15T10:31:04.707Z,22.60
2019-02-15T10:33:33.394Z,22.60
2019-02-15T10:36:01.895Z,22.60
2019-02-15T10:38:30.545Z,22.60
2019-02-15T10:40:59.101Z,22.60
2019-02-15T10:43:27.604Z,22.60
2019-02-15T10:45:56.113Z,22.60
2019-02-15T10:48:26.338Z,22.60
2019-02-15T10:50:54.886Z,22.60
2019-02-15T10:53:23.475Z,22.60
2019-02-15T10:55:53.776Z,22.60
2019-02-15T10:58:22.402Z,22.60
2019-02-15T11:00:50.863Z,22.60
2019-02-15T11:03:19.447Z,22.60
2019-02-15T11:05:48.188Z,22.60
2019-02-15T11:08:18.779Z,22.60
2019-02-15T11:10:47.368Z,22.60
2019-02-15T11:13:16.055Z,22.60
2019-02-15T11:15:44.537Z,22.60
2019-02-15T11:18:13.203Z,22.60
2019-02-15T11:20:43.908Z,22.60
2019-02-15T11:23:12.337Z,22.60
2019-02-15T11:25:40.999Z,22.60
2019-02-15T11:28:09.584Z,22.70
2019-02-15T11:30:38.697Z,22.60
2019-02-15T11:33:07.156Z,22.60
2019-02-15T11:35:36.072Z,22.60
2019-02-15T11:38:04.760Z,22.60
2019-02-15T11:40:33.441Z,22.60
2019-02-15T11:43:01.999Z,22.60
2019-02-15T11:45:30.552Z,22.60
2019-02-15T11:47:59.194Z,22.60
2019-02-15T11:50:29.727Z,22.60
2019-02-15T11:52:59.921Z,22.60
2019-02-15T11:55:28.418Z,22.60
2019-02-15T11:57:57.010Z,22.60
2019-02-15T12:00:29.670Z,22.70
2019-02-15T12:02:58.246Z,22.70
2019-02-15T12:05:29.833Z,22.70
2019-02-15T12:08:00.126Z,22.80
2019-02-15T12:10:28.735Z,22.80
2019-02-15T12:12:57.188Z,22.80
2019-02-15T12:15:25.797Z,22.80
2019-02-15T12:17:54.486Z,22.80
2019-02-15T12:20:23.170Z,22.80
2019-02-15T12:22:53.010Z,22.80
2019-02-15T12:25:21.770Z,22.80
2019-02-15T12:27:50.271Z,22.80
2019-02-15T12:30:18.863Z,22.80
2019-02-15T12:32:47.577Z,22.80
2019-02-15T12:35:16.551Z,22.80
2019-02-15T12:37:45.209Z,22.80
2019-02-15T12:40:13.758Z,22.90
2019-02-15T12:43:15.223Z,22.90
2019-02-15T12:45:37.661Z,22.90
2019-02-15T12:48:06.511Z,22.90
2019-02-15T12:50:35.356Z,22.90
2019-02-15T12:53:04.041Z,23.00
2019-02-15T12:55:32.566Z,23.00
2019-02-15T12:58:01.187Z,23.00
2019-02-15T13:00:29.826Z,23.00
2019-02-15T13:02:58.347Z,23.00
2019-02-15T13:05:27.162Z,23.00
2019-02-15T13:07:57.322Z,23.00
2019-02-15T13:10:27.480Z,23.10
2019-02-15T13:12:56.298Z,23.00
2019-02-15T13:15:25.122Z,23.10
2019-02-15T13:17:53.969Z,23.10
2019-02-15T13:20:22.937Z,23.20
2019-02-15T13:22:51.649Z,23.20
2019-02-15T13:25:20.204Z,23.20
2019-02-15T13:27:49.022Z,23.20
2019-02-15T13:30:18.015Z,23.20
2019-02-15T13:32:47.067Z,23.20
2019-02-15T13:35:24.036Z,23.20
2019-02-15T13:37:52.208Z,23.20
2019-02-15T13:40:24.101Z,23.20
2019-02-15T13:42:52.686Z,23.20
2019-02-15T13:45:21.806Z,23.20
2019-02-15T13:47:50.360Z,23.20
2019-02-15T13:50:19.265Z,23.20
2019-02-15T13:52:48.085Z,23.20
2019-02-15T13:55:16.630Z,23.10
2019-02-15T13:57:45.130Z,23.10
2019-02-15T14:00:17.503Z,23.10
2019-02-15T14:02:46.292Z,23.20
2019-02-15T14:05:15.288Z,23.10
2019-02-15T14:07:44.739Z,23.10
2019-02-15T14:10:15.427Z,23.10
2019-02-15T14:12:44.115Z,23.20
2019-02-15T14:15:12.667Z,23.00
2019-02-15T14:17:45.533Z,23.00
2019-02-15T14:20:13.652Z,22.90
2019-02-15T14:22:42.123Z,22.80
2019-02-15T14:25:12.287Z,22.80
2019-02-15T14:27:41.315Z,22.80
2019-02-15T14:30:14.433Z,22.80
2019-02-15T14:32:43.087Z,22.70
2019-02-15T14:35:16.286Z,22.60
2019-02-15T14:37:45.397Z,22.60
2019-02-15T14:40:14.603Z,22.60
2019-02-15T14:42:43.179Z,22.60
2019-02-15T14:45:15.208Z,22.60
2019-02-15T14:47:43.710Z,22.70
2019-02-15T14:50:12.502Z,22.70
2019-02-15T14:52:40.973Z,22.70
2019-02-15T14:55:10.797Z,22.70
2019-02-15T14:57:39.395Z,22.80
2019-02-15T15:00:12.857Z,22.80
2019-02-15T15:02:41.683Z,22.80
2019-02-15T15:05:14.275Z,22.80
2019-02-15T15:07:42.818Z,22.80
2019-02-15T15:10:14.573Z,22.80
2019-02-15T15:12:43.263Z,22.80
2019-02-15T15:15:13.415Z,22.80
2019-02-15T15:17:41.963Z,22.90
2019-02-15T15:20:12.595Z,22.90
2019-02-15T15:22:41.280Z,22.90
2019-02-15T15:25:12.025Z,22.90
2019-02-15T15:27:40.831Z,22.90
2019-02-15T15:30:11.846Z,23.00
2019-02-15T15:32:41.788Z,22.90
2019-02-15T15:35:11.713Z,22.90
2019-02-15T15:37:40.488Z,22.90
2019-02-15T15:40:14.402Z,22.90
2019-02-15T15:42:43.698Z,22.90
2019-02-15T15:45:12.997Z,22.90
2019-02-15T15:47:41.998Z,23.00
2019-02-15T15:50:14.367Z,23.00
2019-02-15T15:52:43.050Z,22.90
2019-02-15T15:55:13.271Z,23.00
2019-02-15T15:57:41.946Z,23.00
2019-02-15T16:00:13.747Z,23.00
2019-02-15T16:02:42.717Z,23.00
2019-02-15T16:05:11.518Z,23.00
2019-02-15T16:07:40.179Z,23.00
2019-02-15T16:10:11.297Z,23.00
2019-02-15T16:12:41.841Z,23.00
2019-02-15T16:15:14.597Z,23.00
2019-02-15T16:17:43.296Z,23.00
2019-02-15T16:20:12.945Z,23.00
2019-02-15T16:22:41.493Z,23.00
2019-02-15T16:25:10.858Z,23.00
2019-02-15T16:27:43.394Z,23.00
2019-02-15T16:30:14.320Z,23.10
2019-02-15T16:32:42.993Z,23.00
2019-02-15T16:35:11.913Z,23.10
2019-02-15T16:37:40.668Z,23.00
2019-02-15T16:40:19.569Z,23.10
2019-02-15T16:42:48.248Z,23.10
2019-02-15T16:45:17.406Z,23.10
2019-02-15T16:47:45.974Z,23.10
2019-02-15T16:50:14.773Z,23.10
2019-02-15T16:52:43.497Z,23.10
2019-02-15T16:55:13.281Z,23.10
2019-02-15T16:57:42.132Z,23.10
2019-02-15T17:00:12.979Z,23.10
2019-02-15T17:02:43.178Z,23.10
2019-02-15T17:05:11.810Z,23.10
2019-02-15T17:07:40.362Z,23.10
2019-02-15T17:10:10.714Z,23.20
2019-02-15T17:12:39.389Z,23.10
2019-02-15T17:15:13.925Z,23.10
2019-02-15T17:17:44.347Z,23.10
2019-02-15T17:20:13.135Z,23.20
2019-02-15T17:22:44.984Z,23.20
2019-02-15T17:25:15.375Z,23.20
2019-02-15T17:27:43.885Z,23.20
2019-02-15T17:30:12.780Z,23.20
2019-02-15T17:32:44.558Z,23.20
2019-02-15T17:35:13.014Z,23.20
2019-02-15T17:37:41.592Z,23.20
2019-02-15T17:40:12.454Z,23.20
2019-02-15T17:42:41.116Z,23.20
2019-02-15T17:45:11.443Z,23.20
2019-02-15T17:47:43.303Z,23.20
2019-02-15T17:50:14.378Z,23.20
2019-02-15T17:52:43.033Z,23.30
2019-02-15T17:55:11.638Z,23.30
2019-02-15T17:57:40.196Z,23.30
2019-02-15T18:00:16.638Z,23.30
2019-02-15T18:02:45.370Z,23.20
2019-02-15T18:05:17.124Z,23.30
2019-02-15T18:07:48.074Z,23.30
2019-02-15T18:10:16.962Z,23.30
2019-02-15T18:12:48.662Z,23.30
2019-02-15T18:15:17.402Z,23.30
2019-02-15T18:17:46.134Z,23.30
2019-02-15T18:20:15.079Z,23.30
2019-02-15T18:22:43.637Z,23.30
2019-02-15T18:25:12.336Z,23.30
2019-02-15T18:27:41.140Z,23.30
2019-02-15T18:30:16.891Z,23.30
2019-02-15T18:32:45.576Z,23.30
2019-02-15T18:35:14.243Z,23.30
2019-02-15T18:37:42.990Z,23.30
2019-02-15T18:40:11.636Z,23.30
2019-02-15T18:42:40.362Z,23.30
2019-02-15T18:45:14.233Z,23.30
2019-02-15T18:47:42.892Z,23.30
2019-02-15T18:50:11.598Z,23.30
2019-02-15T18:52:40.286Z,23.30
2019-02-15T18:55:10.510Z,23.30
2019-02-15T18:57:39.193Z,23.30
2019-02-15T19:00:15.623Z,23.30
2019-02-15T19:02:46.540Z,23.30
2019-02-15T19:05:15.398Z,23.30
2019-02-15T19:07:44.468Z,23.30
2019-02-15T19:10:15.956Z,23.30
2019-02-15T19:12:46.585Z,23.30
2019-02-15T19:15:16.396Z,23.30
2019-02-15T19:17:46.039Z,23.30
2019-02-15T19:20:16.447Z,23.30
2019-02-15T19:22:44.923Z,23.30
2019-02-15T19:25:18.774Z,23.30
2019-02-15T19:27:47.384Z,23.30
2019-02-15T19:30:19.449Z,23.30
2019-02-15T19:32:49.055Z,23.30
2019-02-15T19:35:18.006Z,23.40
2019-02-15T19:37:46.736Z,23.40
2019-02-15T19:40:18.063Z,23.40
2019-02-15T19:42:48.166Z,23.30
2019-02-15T19:45:16.786Z,23.30
2019-02-15T19:47:48.222Z,23.30
2019-02-15T19:50:21.235Z,23.30
2019-02-15T19:52:49.712Z,23.40
2019-02-15T19:55:21.585Z,23.40
2019-02-15T19:57:50.356Z,23.40
2019-02-15T20:00:21.687Z,23.30
2019-02-15T20:02:50.803Z,23.40
2019-02-15T20:05:22.867Z,23.30
2019-02-15T20:07:51.424Z,23.30
2019-02-15T20:10:22.694Z,23.40
2019-02-15T20:12:51.251Z,23.30
2019-02-15T20:15:19.840Z,23.30
2019-02-15T20:17:48.446Z,23.30
2019-02-15T20:20:17.745Z,23.30
2019-02-15T20:22:46.307Z,23.30
2019-02-15T20:25:15.304Z,23.30
2019-02-15T20:27:48.452Z,23.30
2019-02-15T20:30:24.165Z,23.40
2019-02-15T20:32:52.849Z,23.30
2019-02-15T20:35:21.853Z,23.30
2019-02-15T20:37:50.609Z,23.30
2019-02-15T20:40:20.791Z,23.30
2019-02-15T20:42:49.435Z,23.30
2019-02-15T20:45:24.267Z,23.30
2019-02-15T20:47:56.015Z,23.30
2019-02-15T20:50:24.708Z,23.30
2019-02-15T20:52:53.477Z,23.30
2019-02-15T20:55:22.389Z,23.30
2019-02-15T20:57:50.949Z,23.40
2019-02-15T21:00:27.750Z,23.40
2019-02-15T21:02:56.737Z,23.40
2019-02-15T21:05:25.425Z,23.40
2019-02-15T21:07:54.480Z,23.40
2019-02-15T21:10:23.408Z,23.40
2019-02-15T21:12:53.473Z,23.40
2019-02-15T21:15:24.102Z,23.40
2019-02-15T21:17:53.379Z,23.40
2019-02-15T21:20:22.147Z,23.40
2019-02-15T21:22:50.876Z,23.40
2019-02-15T21:25:19.494Z,23.40
2019-02-15T21:27:49.742Z,23.40
2019-02-15T21:30:23.036Z,23.40
2019-02-15T21:32:51.909Z,23.40
2019-02-15T21:35:20.491Z,23.40
2019-02-15T21:37:49.092Z,23.40
2019-02-15T21:40:19.010Z,23.40
2019-02-15T21:42:47.982Z,23.40
2019-02-15T21:45:16.559Z,23.40
2019-02-15T21:47:45.986Z,23.40
2019-02-15T21:50:17.530Z,23.40
2019-02-15T21:52:45.206Z,23.40
2019-02-15T21:55:15.732Z,23.30
2019-02-15T21:57:44.417Z,23.30
2019-02-15T22:00:15.747Z,23.30
2019-02-15T22:02:44.543Z,23.30
2019-02-15T22:05:13.240Z,23.40
2019-02-15T22:07:42.230Z,23.40
2019-02-15T22:10:10.835Z,23.40
2019-02-15T22:12:39.372Z,23.30
2019-02-15T22:15:15.841Z,23.40
2019-02-15T22:17:44.307Z,23.40
2019-02-15T22:20:25.912Z,23.40
2019-02-15T22:22:47.562Z,23.40
2019-02-15T22:25:16.116Z,23.40
2019-02-15T22:27:44.597Z,23.40
2019-02-15T22:30:18.530Z,23.40
2019-02-15T22:32:47.103Z,23.40
2019-02-15T22:35:15.555Z,23.40
2019-02-15T22:37:44.281Z,23.40
2019-02-15T22:40:24.206Z,23.40
2019-02-15T22:42:53.021Z,23.40
2019-02-15T22:45:23.389Z,23.40
2019-02-15T22:47:51.838Z,23.40
2019-02-15T22:50:20.379Z,23.40
2019-02-15T22:52:49.301Z,23.40
2019-02-15T22:55:18.295Z,23.40
2019-02-15T22:57:46.980Z,23.40
2019-02-15T23:00:22.092Z,23.40
2019-02-15T23:02:51.414Z,23.40
2019-02-15T23:05:20.104Z,23.40
2019-02-15T23:07:48.775Z,23.40
2019-02-15T23:10:17.303Z,23.40
2019-02-15T23:12:49.000Z,23.40
2019-02-15T23:15:17.612Z,23.40
2019-02-15T23:17:46.605Z,23.40
2019-02-15T23:20:15.268Z,23.40
2019-02-15T23:22:43.977Z,23.40
2019-02-15T23:25:12.844Z,23.40
2019-02-15T23:27:41.558Z,23.50
2019-02-15T23:30:11.756Z,23.40
2019-02-15T23:32:40.240Z,23.40
2019-02-15T23:35:08.940Z,23.40
2019-02-15T23:37:37.626Z,23.40
2019-02-15T23:40:06.898Z,23.40
2019-02-15T23:42:35.437Z,23.40
2019-02-15T23:45:06.015Z,23.40
2019-02-15T23:47:34.701Z,23.40
2019-02-15T23:50:03.283Z,23.40
2019-02-15T23:52:31.895Z,23.40
2019-02-15T23:55:00.774Z,23.40
2019-02-15T23:57:29.616Z,23.40
2019-02-15T23:59:58.128Z,23.40
